Puyallup, WA

3:27 PM PDT on July 23, 2016 (GMT -0700)
Pierce County - Thun Field | | Change Station

Elev 538 ft 47.10 °N, 122.29 °W | Updated 12 minutes ago

Mostly Cloudy
Mostly Cloudy
70 °F
Feels Like 70 °F
N
0
Wind Variable Wind from North

Today
High -- | Low -- °F
--% Chance of Precip.
Yesterday
High -- | Low -- °F
Precip. -- in
Pressure 30.26 in
Visibility -9999.0 miles
Clouds Scattered Clouds 3600 ft
Mostly Cloudy 4500 ft
Dew Point 55 °F
Humidity 60%
Rainfall 0.00 in
Snow Depth Not available.
5:38 AM 8:52 PM
Waning Gibbous, 82% visible
METAR KPLU 232215Z AUTO 00000KT SCT036 BKN045 21/13 A3026 RMK AO2
Pressure 30.26 in
Visibility -9999.0 miles
Clouds Scattered Clouds 3600 ft
Mostly Cloudy 4500 ft
Dew Point 55 °F
Humidity 60%
Rainfall 0.00 in
Snow Depth Not available.
5:38 AM 8:52 PM
Waning Gibbous, 82% visible
METAR KPLU 232215Z AUTO 00000KT SCT036 BKN045 21/13 A3026 RMK AO2

10-Day Weather Forecast

Almanac

Astronomy

Jul. 23, 2016 Rise Set
Actual Time
Civil Twilight
Nautical Twilight
Astronomical Twilight
Moon
Length of Visible Light
Length of Day
Tomorrow will be .
, % of the Moon is Illuminated

Today's Extremes

State Highs State Lows

Community

WunderPhotos

Upload Photos

1,926,948 photos uploaded!

WunderBlog® & News

Nearby

Air Quality

  Air Quality AQ Index Pollutant
Not available.

Snow Depth

Station Depth Elevation

Earthquake Activity

City Distance Mag. Time & Date
Minimum magnitude displayed is 2.5.

Coastal Water Temperatures

Place Temperature

Stations

Nearby Weather Stations

Station Location Temp. Windchill Dew Point Humidity Wind Precip. Elev Updated Type
                   

Watches & Warnings

There are currently no watches in effect.